sensor_id;sensor_type;location;lat;lon;timestamp;pressure;altitude;pressure_sealevel;temperature;humidity
59650;BME280;46162;57.568;25.814;2023-02-11T00:01:27;100633.50;;;-2.87;100.00
59650;BME280;46162;57.568;25.814;2023-02-11T00:03:57;100620.16;;;-2.84;100.00
59650;BME280;46162;57.568;25.814;2023-02-11T00:06:29;100618.28;;;-2.82;100.00
59650;BME280;46162;57.568;25.814;2023-02-11T00:08:58;100611.28;;;-2.83;100.00
59650;BME280;46162;57.568;25.814;2023-02-11T00:11:28;100602.44;;;-2.82;100.00
59650;BME280;46162;57.568;25.814;2023-02-11T00:13:57;100597.16;;;-2.82;100.00
59650;BME280;46162;57.568;25.814;2023-02-11T00:16:27;100599.66;;;-2.78;100.00
59650;BME280;46162;57.568;25.814;2023-02-11T00:18:58;100588.94;;;-2.75;100.00
59650;BME280;46162;57.568;25.814;2023-02-11T00:21:27;100584.59;;;-2.76;100.00
59650;BME280;46162;57.568;25.814;2023-02-11T00:23:57;100574.03;;;-2.76;100.00
59650;BME280;46162;57.568;25.814;2023-02-11T00:26:29;100566.78;;;-2.73;100.00
59650;BME280;46162;57.568;25.814;2023-02-11T00:28:59;100565.88;;;-2.72;100.00
59650;BME280;46162;57.568;25.814;2023-02-11T00:31:30;100559.66;;;-2.71;100.00
59650;BME280;46162;57.568;25.814;2023-02-11T00:34:03;100550.78;;;-2.70;100.00
59650;BME280;46162;57.568;25.814;2023-02-11T00:36:32;100529.53;;;-2.67;100.00
59650;BME280;46162;57.568;25.814;2023-02-11T00:39:02;100525.09;;;-2.66;100.00
59650;BME280;46162;57.568;25.814;2023-02-11T00:41:31;100512.59;;;-2.63;100.00
59650;BME280;46162;57.568;25.814;2023-02-11T00:44:00;100510.66;;;-2.59;100.00
59650;BME280;46162;57.568;25.814;2023-02-11T00:46:28;100498.16;;;-2.55;100.00
59650;BME280;46162;57.568;25.814;2023-02-11T00:48:57;100491.06;;;-2.55;100.00
59650;BME280;46162;57.568;25.814;2023-02-11T00:51:26;100483.94;;;-2.53;100.00
59650;BME280;46162;57.568;25.814;2023-02-11T00:53:55;100475.78;;;-2.48;100.00
59650;BME280;46162;57.568;25.814;2023-02-11T00:56:25;100472.94;;;-2.44;100.00
59650;BME280;46162;57.568;25.814;2023-02-11T00:58:54;100465.00;;;-2.44;100.00
59650;BME280;46162;57.568;25.814;2023-02-11T01:01:23;100450.81;;;-2.43;100.00
59650;BME280;46162;57.568;25.814;2023-02-11T01:03:52;100447.28;;;-2.42;100.00
59650;BME280;46162;57.568;25.814;2023-02-11T01:06:22;100439.34;;;-2.42;100.00
59650;BME280;46162;57.568;25.814;2023-02-11T01:08:50;100430.63;;;-2.44;100.00
59650;BME280;46162;57.568;25.814;2023-02-11T01:11:20;100428.59;;;-2.39;100.00
59650;BME280;46162;57.568;25.814;2023-02-11T01:13:50;100412.75;;;-2.39;100.00
59650;BME280;46162;57.568;25.814;2023-02-11T01:16:19;100410.25;;;-2.42;100.00
59650;BME280;46162;57.568;25.814;2023-02-11T01:18:48;100395.19;;;-2.40;100.00
59650;BME280;46162;57.568;25.814;2023-02-11T01:21:16;100388.16;;;-2.41;100.00
59650;BME280;46162;57.568;25.814;2023-02-11T01:23:45;100377.59;;;-2.41;100.00
59650;BME280;46162;57.568;25.814;2023-02-11T01:26:14;100363.47;;;-2.40;100.00
59650;BME280;46162;57.568;25.814;2023-02-11T01:28:42;100359.94;;;-2.40;100.00
59650;BME280;46162;57.568;25.814;2023-02-11T01:31:13;100337.00;;;-2.40;100.00
59650;BME280;46162;57.568;25.814;2023-02-11T01:33:42;100327.91;;;-2.34;100.00
59650;BME280;46162;57.568;25.814;2023-02-11T01:36:11;100306.81;;;-2.35;100.00
59650;BME280;46162;57.568;25.814;2023-02-11T01:38:40;100306.75;;;-2.34;100.00
59650;BME280;46162;57.568;25.814;2023-02-11T01:41:12;100303.09;;;-2.31;100.00
59650;BME280;46162;57.568;25.814;2023-02-11T01:43:43;100287.16;;;-2.30;100.00
59650;BME280;46162;57.568;25.814;2023-02-11T01:46:34;100280.06;;;-2.29;100.00
59650;BME280;46162;57.568;25.814;2023-02-11T01:49:06;100264.81;;;-2.24;100.00
59650;BME280;46162;57.568;25.814;2023-02-11T01:51:39;100254.41;;;-2.27;100.00
59650;BME280;46162;57.568;25.814;2023-02-11T01:54:11;100248.78;;;-2.21;100.00
59650;BME280;46162;57.568;25.814;2023-02-11T01:56:59;100221.56;;;-2.23;100.00
59650;BME280;46162;57.568;25.814;2023-02-11T01:59:53;100214.84;;;-2.13;100.00
59650;BME280;46162;57.568;25.814;2023-02-11T02:02:29;100198.38;;;-2.18;100.00
59650;BME280;46162;57.568;25.814;2023-02-11T02:05:21;100176.72;;;-2.09;100.00
59650;BME280;46162;57.568;25.814;2023-02-11T02:07:55;100160.31;;;-2.16;100.00
59650;BME280;46162;57.568;25.814;2023-02-11T02:10:26;100148.91;;;-2.16;100.00
59650;BME280;46162;57.568;25.814;2023-02-11T02:12:56;100133.72;;;-2.12;100.00
59650;BME280;46162;57.568;25.814;2023-02-11T02:15:27;100117.94;;;-2.14;100.00
59650;BME280;46162;57.568;25.814;2023-02-11T02:18:02;100112.66;;;-2.14;100.00
59650;BME280;46162;57.568;25.814;2023-02-11T02:21:12;100098.47;;;-2.13;100.00
59650;BME280;46162;57.568;25.814;2023-02-11T02:24:13;100099.41;;;-2.14;100.00
59650;BME280;46162;57.568;25.814;2023-02-11T02:27:11;100075.69;;;-2.16;100.00
59650;BME280;46162;57.568;25.814;2023-02-11T02:30:15;100053.00;;;-2.04;100.00
59650;BME280;46162;57.568;25.814;2023-02-11T02:33:14;100044.47;;;-2.09;100.00
59650;BME280;46162;57.568;25.814;2023-02-11T02:35:55;100037.31;;;-2.07;100.00
59650;BME280;46162;57.568;25.814;2023-02-11T02:38:29;100031.66;;;-2.01;100.00
59650;BME280;46162;57.568;25.814;2023-02-11T02:41:03;100029.88;;;-2.00;100.00
59650;BME280;46162;57.568;25.814;2023-02-11T02:43:35;100006.06;;;-2.00;100.00
59650;BME280;46162;57.568;25.814;2023-02-11T02:46:12;99997.00;;;-1.96;100.00
59650;BME280;46162;57.568;25.814;2023-02-11T02:48:43;99981.91;;;-1.94;100.00
59650;BME280;46162;57.568;25.814;2023-02-11T02:57:23;99948.38;;;-1.79;100.00
59650;BME280;46162;57.568;25.814;2023-02-11T03:00:06;99942.25;;;-1.80;100.00
59650;BME280;46162;57.568;25.814;2023-02-11T03:02:41;99925.41;;;-1.79;100.00
59650;BME280;46162;57.568;25.814;2023-02-11T03:05:17;99913.78;;;-1.76;100.00
59650;BME280;46162;57.568;25.814;2023-02-11T03:07:55;99911.91;;;-1.74;100.00
59650;BME280;46162;57.568;25.814;2023-02-11T03:10:28;99903.03;;;-1.73;100.00
59650;BME280;46162;57.568;25.814;2023-02-11T03:12:58;99901.13;;;-1.71;100.00
59650;BME280;46162;57.568;25.814;2023-02-11T03:15:30;99882.34;;;-1.66;100.00
59650;BME280;46162;57.568;25.814;2023-02-11T03:18:00;99874.38;;;-1.66;100.00
59650;BME280;46162;57.568;25.814;2023-02-11T03:20:32;99882.91;;;-1.61;100.00
59650;BME280;46162;57.568;25.814;2023-02-11T03:23:09;99873.91;;;-1.59;100.00
59650;BME280;46162;57.568;25.814;2023-02-11T03:25:43;99871.09;;;-1.56;100.00
59650;BME280;46162;57.568;25.814;2023-02-11T03:28:17;99859.47;;;-1.53;100.00
59650;BME280;46162;57.568;25.814;2023-02-11T03:30:54;99848.88;;;-1.53;100.00
59650;BME280;46162;57.568;25.814;2023-02-11T03:33:27;99832.69;;;-1.48;100.00
59650;BME280;46162;57.568;25.814;2023-02-11T03:36:03;99812.47;;;-1.49;100.00
59650;BME280;46162;57.568;25.814;2023-02-11T03:38:37;99804.25;;;-1.45;100.00
59650;BME280;46162;57.568;25.814;2023-02-11T03:41:09;99798.94;;;-1.45;100.00
59650;BME280;46162;57.568;25.814;2023-02-11T03:43:41;99793.38;;;-1.40;100.00
59650;BME280;46162;57.568;25.814;2023-02-11T03:46:13;99789.75;;;-1.39;100.00
59650;BME280;46162;57.568;25.814;2023-02-11T03:48:48;99780.47;;;-1.32;100.00
59650;BME280;46162;57.568;25.814;2023-02-11T03:51:22;99787.28;;;-1.28;100.00
59650;BME280;46162;57.568;25.814;2023-02-11T03:53:54;99782.63;;;-1.24;100.00
59650;BME280;46162;57.568;25.814;2023-02-11T03:56:28;99765.47;;;-1.19;100.00
59650;BME280;46162;57.568;25.814;2023-02-11T03:58:57;99749.78;;;-1.22;100.00
59650;BME280;46162;57.568;25.814;2023-02-11T04:01:26;99738.06;;;-1.18;100.00
59650;BME280;46162;57.568;25.814;2023-02-11T04:03:54;99729.91;;;-1.15;100.00
59650;BME280;46162;57.568;25.814;2023-02-11T04:06:24;99724.81;;;-1.18;100.00
59650;BME280;46162;57.568;25.814;2023-02-11T04:08:53;99695.47;;;-1.15;100.00
59650;BME280;46162;57.568;25.814;2023-02-11T04:11:22;99692.53;;;-1.10;100.00
59650;BME280;46162;57.568;25.814;2023-02-11T04:13:50;99692.59;;;-1.12;100.00
59650;BME280;46162;57.568;25.814;2023-02-11T04:16:19;99681.84;;;-1.09;100.00
59650;BME280;46162;57.568;25.814;2023-02-11T04:18:48;99672.91;;;-1.08;100.00
59650;BME280;46162;57.568;25.814;2023-02-11T04:21:16;99659.59;;;-1.06;100.00
59650;BME280;46162;57.568;25.814;2023-02-11T04:23:46;99653.41;;;-1.06;100.00
59650;BME280;46162;57.568;25.814;2023-02-11T04:26:15;99648.13;;;-1.06;100.00
59650;BME280;46162;57.568;25.814;2023-02-11T04:28:43;99639.44;;;-1.09;100.00
59650;BME280;46162;57.568;25.814;2023-02-11T04:31:12;99638.41;;;-1.06;100.00
59650;BME280;46162;57.568;25.814;2023-02-11T04:33:40;99643.47;;;-1.03;100.00
59650;BME280;46162;57.568;25.814;2023-02-11T04:36:09;99636.47;;;-1.04;100.00
59650;BME280;46162;57.568;25.814;2023-02-11T04:38:38;99630.22;;;-1.03;100.00
59650;BME280;46162;57.568;25.814;2023-02-11T04:41:07;99613.50;;;-1.03;100.00
59650;BME280;46162;57.568;25.814;2023-02-11T04:43:36;99602.69;;;-1.00;100.00
59650;BME280;46162;57.568;25.814;2023-02-11T04:46:04;99597.28;;;-0.99;100.00
59650;BME280;46162;57.568;25.814;2023-02-11T04:48:33;99587.75;;;-1.01;100.00
59650;BME280;46162;57.568;25.814;2023-02-11T04:51:02;99570.88;;;-1.00;100.00
59650;BME280;46162;57.568;25.814;2023-02-11T04:53:31;99573.22;;;-0.96;100.00
59650;BME280;46162;57.568;25.814;2023-02-11T04:55:59;99560.06;;;-0.97;100.00
59650;BME280;46162;57.568;25.814;2023-02-11T04:58:29;99557.41;;;-0.97;100.00
59650;BME280;46162;57.568;25.814;2023-02-11T05:01:05;99543.44;;;-0.99;100.00
59650;BME280;46162;57.568;25.814;2023-02-11T05:03:34;99529.03;;;-0.95;100.00
59650;BME280;46162;57.568;25.814;2023-02-11T05:06:03;99529.03;;;-0.95;100.00
59650;BME280;46162;57.568;25.814;2023-02-11T05:08:32;99514.94;;;-0.96;100.00
59650;BME280;46162;57.568;25.814;2023-02-11T05:11:00;99517.69;;;-0.97;100.00
59650;BME280;46162;57.568;25.814;2023-02-11T05:13:31;99510.38;;;-0.94;100.00
59650;BME280;46162;57.568;25.814;2023-02-11T05:15:59;99500.41;;;-0.90;100.00
59650;BME280;46162;57.568;25.814;2023-02-11T05:18:28;99499.56;;;-0.91;100.00
59650;BME280;46162;57.568;25.814;2023-02-11T05:20:56;99496.78;;;-0.89;100.00
59650;BME280;46162;57.568;25.814;2023-02-11T05:23:25;99488.50;;;-0.84;100.00
59650;BME280;46162;57.568;25.814;2023-02-11T05:25:53;99478.97;;;-0.87;100.00
59650;BME280;46162;57.568;25.814;2023-02-11T05:28:22;99483.53;;;-0.89;100.00
59650;BME280;46162;57.568;25.814;2023-02-11T05:30:52;99470.28;;;-0.89;100.00
59650;BME280;46162;57.568;25.814;2023-02-11T05:33:20;99477.31;;;-0.88;100.00
59650;BME280;46162;57.568;25.814;2023-02-11T05:35:49;99462.47;;;-0.91;100.00
59650;BME280;46162;57.568;25.814;2023-02-11T05:38:18;99444.03;;;-0.92;100.00
59650;BME280;46162;57.568;25.814;2023-02-11T05:40:46;99450.91;;;-0.90;100.00
59650;BME280;46162;57.568;25.814;2023-02-11T05:43:15;99433.41;;;-0.92;100.00
59650;BME280;46162;57.568;25.814;2023-02-11T05:45:43;99436.91;;;-0.92;100.00
59650;BME280;46162;57.568;25.814;2023-02-11T05:48:13;99437.88;;;-0.93;100.00
59650;BME280;46162;57.568;25.814;2023-02-11T05:50:42;99424.72;;;-0.94;100.00
59650;BME280;46162;57.568;25.814;2023-02-11T05:53:10;99428.88;;;-0.90;100.00
59650;BME280;46162;57.568;25.814;2023-02-11T05:55:40;99427.91;;;-0.89;100.00
59650;BME280;46162;57.568;25.814;2023-02-11T05:58:09;99421.75;;;-0.90;100.00
59650;BME280;46162;57.568;25.814;2023-02-11T06:00:38;99420.91;;;-0.90;100.00
59650;BME280;46162;57.568;25.814;2023-02-11T06:03:06;99419.94;;;-0.89;100.00
59650;BME280;46162;57.568;25.814;2023-02-11T06:05:36;99424.41;;;-0.90;100.00
59650;BME280;46162;57.568;25.814;2023-02-11T06:08:05;99417.19;;;-0.88;100.00
59650;BME280;46162;57.568;25.814;2023-02-11T06:10:33;99405.00;;;-0.90;100.00
59650;BME280;46162;57.568;25.814;2023-02-11T06:13:02;99412.00;;;-0.89;100.00
59650;BME280;46162;57.568;25.814;2023-02-11T06:15:30;99405.00;;;-0.90;100.00
59650;BME280;46162;57.568;25.814;2023-02-11T06:17:59;99402.47;;;-0.92;100.00
59650;BME280;46162;57.568;25.814;2023-02-11T06:20:27;99396.22;;;-0.91;100.00
59650;BME280;46162;57.568;25.814;2023-02-11T06:22:57;99380.44;;;-0.92;100.00
59650;BME280;46162;57.568;25.814;2023-02-11T06:25:25;99392.75;;;-0.91;100.00
59650;BME280;46162;57.568;25.814;2023-02-11T06:27:54;99391.03;;;-0.92;100.00
59650;BME280;46162;57.568;25.814;2023-02-11T06:30:22;99379.59;;;-0.93;100.00
59650;BME280;46162;57.568;25.814;2023-02-11T06:32:51;99383.81;;;-0.90;100.00
59650;BME280;46162;57.568;25.814;2023-02-11T06:35:20;99383.72;;;-0.89;100.00
59650;BME280;46162;57.568;25.814;2023-02-11T06:37:49;99381.28;;;-0.92;100.00
59650;BME280;46162;57.568;25.814;2023-02-11T06:40:21;99370.66;;;-0.92;100.00
59650;BME280;46162;57.568;25.814;2023-02-11T06:42:49;99376.84;;;-0.91;100.00
59650;BME280;46162;57.568;25.814;2023-02-11T06:45:18;99380.34;;;-0.91;100.00
59650;BME280;46162;57.568;25.814;2023-02-11T06:47:46;99375.97;;;-0.92;100.00
59650;BME280;46162;57.568;25.814;2023-02-11T06:50:15;99367.91;;;-0.90;100.00
59650;BME280;46162;57.568;25.814;2023-02-11T06:52:43;99371.53;;;-0.91;100.00
59650;BME280;46162;57.568;25.814;2023-02-11T06:55:12;99361.78;;;-0.91;100.00
59650;BME280;46162;57.568;25.814;2023-02-11T06:57:42;99359.00;;;-0.89;100.00
59650;BME280;46162;57.568;25.814;2023-02-11T07:00:12;99360.72;;;-0.88;100.00
59650;BME280;46162;57.568;25.814;2023-02-11T07:02:41;99365.03;;;-0.87;100.00
59650;BME280;46162;57.568;25.814;2023-02-11T07:05:10;99356.25;;;-0.88;100.00
59650;BME280;46162;57.568;25.814;2023-02-11T07:07:38;99354.44;;;-0.87;100.00
59650;BME280;46162;57.568;25.814;2023-02-11T07:10:07;99346.50;;;-0.87;100.00
59650;BME280;46162;57.568;25.814;2023-02-11T07:12:36;99353.69;;;-0.89;100.00
59650;BME280;46162;57.568;25.814;2023-02-11T07:15:07;99354.56;;;-0.89;100.00
59650;BME280;46162;57.568;25.814;2023-02-11T07:17:35;99346.50;;;-0.87;100.00
59650;BME280;46162;57.568;25.814;2023-02-11T07:20:05;99360.72;;;-0.88;100.00
59650;BME280;46162;57.568;25.814;2023-02-11T07:22:33;99362.63;;;-0.90;100.00
59650;BME280;46162;57.568;25.814;2023-02-11T07:25:02;99361.66;;;-0.89;100.00
59650;BME280;46162;57.568;25.814;2023-02-11T07:27:31;99364.31;;;-0.89;100.00
59650;BME280;46162;57.568;25.814;2023-02-11T07:29:59;99363.47;;;-0.90;100.00
59650;BME280;46162;57.568;25.814;2023-02-11T07:32:32;99366.84;;;-0.88;100.00
59650;BME280;46162;57.568;25.814;2023-02-11T07:35:00;99367.09;;;-0.91;100.00
59650;BME280;46162;57.568;25.814;2023-02-11T07:37:32;99360.94;;;-0.91;100.00
59650;BME280;46162;57.568;25.814;2023-02-11T07:40:01;99360.94;;;-0.91;100.00
59650;BME280;46162;57.568;25.814;2023-02-11T07:42:29;99365.16;;;-0.89;100.00
59650;BME280;46162;57.568;25.814;2023-02-11T07:44:58;99366.84;;;-0.88;100.00
59650;BME280;46162;57.568;25.814;2023-02-11T07:47:27;99365.16;;;-0.89;100.00
59650;BME280;46162;57.568;25.814;2023-02-11T07:49:57;99366.00;;;-0.88;100.00
59650;BME280;46162;57.568;25.814;2023-02-11T07:52:28;99363.38;;;-0.88;100.00
59650;BME280;46162;57.568;25.814;2023-02-11T07:54:57;99359.00;;;-0.89;100.00
59650;BME280;46162;57.568;25.814;2023-02-11T07:57:26;99355.31;;;-0.87;100.00
59650;BME280;46162;57.568;25.814;2023-02-11T07:59:54;99355.31;;;-0.87;100.00
59650;BME280;46162;57.568;25.814;2023-02-11T08:02:22;99357.00;;;-0.85;100.00
59650;BME280;46162;57.568;25.814;2023-02-11T08:04:51;99353.50;;;-0.86;100.00
59650;BME280;46162;57.568;25.814;2023-02-11T08:07:21;99346.50;;;-0.87;100.00
59650;BME280;46162;57.568;25.814;2023-02-11T08:09:50;99346.50;;;-0.87;100.00
59650;BME280;46162;57.568;25.814;2023-02-11T08:12:20;99343.66;;;-0.84;100.00
59650;BME280;46162;57.568;25.814;2023-02-11T08:14:49;99346.28;;;-0.84;100.00
59650;BME280;46162;57.568;25.814;2023-02-11T08:17:17;99355.19;;;-0.85;100.00
59650;BME280;46162;57.568;25.814;2023-02-11T08:19:46;99347.38;;;-0.87;100.00
59650;BME280;46162;57.568;25.814;2023-02-11T08:22:14;99347.22;;;-0.85;100.00
59650;BME280;46162;57.568;25.814;2023-02-11T08:24:44;99347.22;;;-0.85;100.00
59650;BME280;46162;57.568;25.814;2023-02-11T08:27:13;99355.94;;;-0.83;100.00
59650;BME280;46162;57.568;25.814;2023-02-11T08:29:42;99357.59;;;-0.82;100.00
59650;BME280;46162;57.568;25.814;2023-02-11T08:32:11;99355.69;;;-0.80;100.00
59650;BME280;46162;57.568;25.814;2023-02-11T08:34:39;99361.13;;;-0.81;100.00
59650;BME280;46162;57.568;25.814;2023-02-11T08:37:08;99366.53;;;-0.83;100.00
59650;BME280;46162;57.568;25.814;2023-02-11T08:39:36;99375.22;;;-0.81;100.00
59650;BME280;46162;57.568;25.814;2023-02-11T08:42:07;99378.69;;;-0.80;100.00
59650;BME280;46162;57.568;25.814;2023-02-11T08:44:35;99385.69;;;-0.79;100.00
59650;BME280;46162;57.568;25.814;2023-02-11T08:47:04;99390.78;;;-0.76;100.00
59650;BME280;46162;57.568;25.814;2023-02-11T08:49:32;99388.22;;;-0.78;100.00
59650;BME280;46162;57.568;25.814;2023-02-11T08:52:01;99391.84;;;-0.79;100.00
59650;BME280;46162;57.568;25.814;2023-02-11T08:54:30;99404.97;;;-0.77;100.00
59650;BME280;46162;57.568;25.814;2023-02-11T08:56:59;99395.34;;;-0.78;100.00
59650;BME280;46162;57.568;25.814;2023-02-11T08:59:30;99397.03;;;-0.77;100.00
59650;BME280;46162;57.568;25.814;2023-02-11T09:01:58;99396.91;;;-0.76;100.00
59650;BME280;46162;57.568;25.814;2023-02-11T09:04:27;99401.25;;;-0.75;100.00
59650;BME280;46162;57.568;25.814;2023-02-11T09:06:56;99400.31;;;-0.74;100.00
59650;BME280;46162;57.568;25.814;2023-02-11T09:09:24;99403.69;;;-0.72;100.00
59650;BME280;46162;57.568;25.814;2023-02-11T09:11:54;99394.03;;;-0.73;100.00
59650;BME280;46162;57.568;25.814;2023-02-11T09:14:23;99402.50;;;-0.68;100.00
59650;BME280;46162;57.568;25.814;2023-02-11T09:16:53;99393.38;;;-0.63;100.00
59650;BME280;46162;57.568;25.814;2023-02-11T09:19:22;99396.78;;;-0.61;100.00
59650;BME280;46162;57.568;25.814;2023-02-11T09:21:51;99406.41;;;-0.60;100.00
59650;BME280;46162;57.568;25.814;2023-02-11T09:24:19;99402.78;;;-0.59;100.00
59650;BME280;46162;57.568;25.814;2023-02-11T09:26:48;99404.38;;;-0.57;100.00
59650;BME280;46162;57.568;25.814;2023-02-11T09:29:16;99410.53;;;-0.56;100.00
59650;BME280;46162;57.568;25.814;2023-02-11T09:31:45;99409.47;;;-0.54;100.00
59650;BME280;46162;57.568;25.814;2023-02-11T09:34:15;99411.03;;;-0.51;100.00
59650;BME280;46162;57.568;25.814;2023-02-11T09:36:44;99417.91;;;-0.49;100.00
59650;BME280;46162;57.568;25.814;2023-02-11T09:39:14;99421.06;;;-0.44;100.00
59650;BME280;46162;57.568;25.814;2023-02-11T09:42:02;99418.81;;;-0.37;100.00
59650;BME280;46162;57.568;25.814;2023-02-11T09:44:35;99420.28;;;-0.33;100.00
59650;BME280;46162;57.568;25.814;2023-02-11T09:47:06;99421.50;;;-0.26;100.00
59650;BME280;46162;57.568;25.814;2023-02-11T09:49:44;99433.59;;;-0.22;100.00
59650;BME280;46162;57.568;25.814;2023-02-11T09:52:24;99432.28;;;-0.16;100.00
59650;BME280;46162;57.568;25.814;2023-02-11T09:54:58;99424.47;;;-0.06;100.00
59650;BME280;46162;57.568;25.814;2023-02-11T09:57:31;99426.69;;;0.00;100.00
59650;BME280;46162;57.568;25.814;2023-02-11T10:00:02;99431.03;;;0.01;100.00
59650;BME280;46162;57.568;25.814;2023-02-11T10:02:46;99438.97;;;0.01;100.00
59650;BME280;46162;57.568;25.814;2023-02-11T10:05:34;99431.88;;;0.02;100.00
59650;BME280;46162;57.568;25.814;2023-02-11T10:08:08;99434.06;;;0.08;100.00
59650;BME280;46162;57.568;25.814;2023-02-11T10:10:49;99435.66;;;0.10;100.00
59650;BME280;46162;57.568;25.814;2023-02-11T10:13:31;99439.97;;;0.11;100.00
59650;BME280;46162;57.568;25.814;2023-02-11T10:16:08;99453.91;;;0.26;100.00
59650;BME280;46162;57.568;25.814;2023-02-11T10:19:02;99447.06;;;0.35;100.00
59650;BME280;46162;57.568;25.814;2023-02-11T10:21:39;99449.22;;;0.41;100.00
59650;BME280;46162;57.568;25.814;2023-02-11T10:24:14;99460.09;;;0.49;100.00
59650;BME280;46162;57.568;25.814;2023-02-11T10:26:44;99474.59;;;0.45;100.00
59650;BME280;46162;57.568;25.814;2023-02-11T10:29:22;99466.13;;;0.51;100.00
59650;BME280;46162;57.568;25.814;2023-02-11T10:31:53;99474.25;;;0.61;100.00
59650;BME280;46162;57.568;25.814;2023-02-11T10:34:24;99478.47;;;0.63;100.00
59650;BME280;46162;57.568;25.814;2023-02-11T10:36:54;99486.34;;;0.65;100.00
59650;BME280;46162;57.568;25.814;2023-02-11T10:39:25;99492.50;;;0.66;100.00
59650;BME280;46162;57.568;25.814;2023-02-11T10:41:56;99501.19;;;0.68;100.00
59650;BME280;46162;57.568;25.814;2023-02-11T10:44:30;99506.50;;;0.68;100.00
59650;BME280;46162;57.568;25.814;2023-02-11T10:47:03;99509.63;;;0.61;100.00
59650;BME280;46162;57.568;25.814;2023-02-11T10:49:35;99521.22;;;0.60;100.00
59650;BME280;46162;57.568;25.814;2023-02-11T10:52:23;99528.44;;;0.58;100.00
59650;BME280;46162;57.568;25.814;2023-02-11T10:55:04;99532.53;;;0.51;100.00
59650;BME280;46162;57.568;25.814;2023-02-11T10:57:35;99550.88;;;0.54;100.00
59650;BME280;46162;57.568;25.814;2023-02-11T11:00:19;99560.97;;;0.38;100.00
59650;BME280;46162;57.568;25.814;2023-02-11T11:02:54;99570.38;;;0.31;100.00
59650;BME280;46162;57.568;25.814;2023-02-11T11:05:28;99585.31;;;0.32;100.00
59650;BME280;46162;57.568;25.814;2023-02-11T11:08:03;99589.44;;;0.36;100.00
59650;BME280;46162;57.568;25.814;2023-02-11T11:10:38;99597.41;;;0.36;100.00
59650;BME280;46162;57.568;25.814;2023-02-11T11:13:36;99603.56;;;0.36;100.00
59650;BME280;46162;57.568;25.814;2023-02-11T11:16:21;99618.19;;;0.42;100.00
59650;BME280;46162;57.568;25.814;2023-02-11T11:18:52;99616.50;;;0.41;100.00
59650;BME280;46162;57.568;25.814;2023-02-11T11:21:32;99614.19;;;0.36;100.00
59650;BME280;46162;57.568;25.814;2023-02-11T11:24:20;99624.19;;;0.33;100.00
59650;BME280;46162;57.568;25.814;2023-02-11T11:26:58;99647.03;;;0.35;100.00
59650;BME280;46162;57.568;25.814;2023-02-11T11:29:32;99659.47;;;0.35;100.00
59650;BME280;46162;57.568;25.814;2023-02-11T11:32:04;99664.53;;;0.38;100.00
59650;BME280;46162;57.568;25.814;2023-02-11T11:34:40;99671.75;;;0.36;100.00
59650;BME280;46162;57.568;25.814;2023-02-11T11:37:12;99670.19;;;0.33;100.00
59650;BME280;46162;57.568;25.814;2023-02-11T11:39:42;99677.41;;;0.31;100.00
59650;BME280;46162;57.568;25.814;2023-02-11T11:42:25;99685.81;;;0.25;100.00
59650;BME280;46162;57.568;25.814;2023-02-11T11:44:56;99685.19;;;0.21;100.00
59650;BME280;46162;57.568;25.814;2023-02-11T11:47:35;99697.94;;;0.16;100.00
59650;BME280;46162;57.568;25.814;2023-02-11T11:50:26;99708.56;;;0.16;100.00
59650;BME280;46162;57.568;25.814;2023-02-11T11:53:03;99715.34;;;0.20;100.00
59650;BME280;46162;57.568;25.814;2023-02-11T11:55:38;99718.75;;;0.23;100.00
59650;BME280;46162;57.568;25.814;2023-02-11T11:58:15;99734.69;;;0.23;100.00
59650;BME280;46162;57.568;25.814;2023-02-11T12:00:54;99737.66;;;0.18;100.00
59650;BME280;46162;57.568;25.814;2023-02-11T12:04:06;99740.41;;;0.16;100.00
59650;BME280;46162;57.568;25.814;2023-02-11T12:06:50;99742.84;;;0.19;100.00
59650;BME280;46162;57.568;25.814;2023-02-11T12:09:25;99757.59;;;0.24;100.00
59650;BME280;46162;57.568;25.814;2023-02-11T12:12:24;99770.75;;;0.38;100.00
59650;BME280;46162;57.568;25.814;2023-02-11T12:15:10;99784.97;;;0.37;100.00
59650;BME280;46162;57.568;25.814;2023-02-11T12:18:08;99803.69;;;0.23;100.00
59650;BME280;46162;57.568;25.814;2023-02-11T12:21:04;99809.19;;;0.19;100.00
59650;BME280;46162;57.568;25.814;2023-02-11T12:23:50;99827.91;;;0.18;100.00
59650;BME280;46162;57.568;25.814;2023-02-11T12:26:23;99833.41;;;0.02;100.00
59650;BME280;46162;57.568;25.814;2023-02-11T12:29:11;99845.41;;;-0.05;100.00
59650;BME280;46162;57.568;25.814;2023-02-11T12:35:04;99866.59;;;-0.18;100.00
59650;BME280;46162;57.568;25.814;2023-02-11T12:37:48;99881.59;;;-0.17;100.00
59650;BME280;46162;57.568;25.814;2023-02-11T12:40:29;99892.81;;;-0.26;100.00
59650;BME280;46162;57.568;25.814;2023-02-11T12:43:14;99907.44;;;-0.33;100.00
59650;BME280;46162;57.568;25.814;2023-02-11T12:46:05;99922.19;;;-0.29;100.00
59650;BME280;46162;57.568;25.814;2023-02-11T12:51:43;99957.44;;;-0.54;100.00
59650;BME280;46162;57.568;25.814;2023-02-11T12:54:21;99968.63;;;-0.63;100.00
59650;BME280;46162;57.568;25.814;2023-02-11T12:56:58;99987.38;;;-0.67;100.00
59650;BME280;46162;57.568;25.814;2023-02-11T12:59:50;99995.72;;;-0.73;100.00
59650;BME280;46162;57.568;25.814;2023-02-11T13:02:32;100001.78;;;-0.71;100.00
59650;BME280;46162;57.568;25.814;2023-02-11T13:07:50;100036.22;;;-0.85;100.00
59650;BME280;46162;57.568;25.814;2023-02-11T13:10:27;100060.47;;;-0.91;100.00
59650;BME280;46162;57.568;25.814;2023-02-11T13:12:59;100066.13;;;-0.97;100.00
59650;BME280;46162;57.568;25.814;2023-02-11T13:15:50;100075.41;;;-1.04;100.00
59650;BME280;46162;57.568;25.814;2023-02-11T13:18:29;100074.44;;;-1.18;100.00
59650;BME280;46162;57.568;25.814;2023-02-11T13:21:18;100100.41;;;-1.09;100.00
59650;BME280;46162;57.568;25.814;2023-02-11T13:23:54;100117.03;;;-1.21;100.00
59650;BME280;46162;57.568;25.814;2023-02-11T13:26:30;100133.00;;;-1.22;100.00